Time;durP1;ratioP1;P1;durP2;ratioP2;P2;SDS_P1;SDS_P2;PMS_P1;PMS_P2;Temp;Humidity;BMP_temperature;BMP_pressure;BME280_temperature;BME280_humidity;BME280_pressure;Samples;Min_cycle;Max_cycle;Signal;HPM_P1;HPM_P2
2021/06/25 00:01:52;;;;;;;22.63;20.63;;;;;;;9.90;66.31;101913.53;4185302;28;20032;-90
2021/06/25 00:03:52;;;;;;;23.02;21.00;;;;;;;9.84;66.36;101906.97;4153444;28;20046;-88
2021/06/25 00:05:53;;;;;;;24.50;22.15;;;;;;;9.90;66.67;101922.63;4163951;28;20064;-85
2021/06/25 00:07:53;;;;;;;21.48;19.38;;;;;;;9.79;67.08;101917.63;4171322;28;20033;-89
2021/06/25 00:09:54;;;;;;;22.67;20.55;;;;;;;9.77;67.33;101916.97;4150474;28;20120;-87
2021/06/25 00:11:54;;;;;;;24.50;22.00;;;;;;;9.70;67.98;101913.28;4185636;28;20036;-86
2021/06/25 00:13:57;;;;;;;26.35;23.70;;;;;;;9.82;67.32;101928.16;4162714;28;20033;-89
2021/06/25 00:15:58;;;;;;;24.77;22.38;;;;;;;9.79;67.42;101923.09;4168849;28;20044;-88
2021/06/25 00:17:59;;;;;;;25.92;23.42;;;;;;;9.77;67.34;101922.44;4172404;28;20033;-88
2021/06/25 00:19:59;;;;;;;28.45;25.75;;;;;;;9.78;67.58;101924.97;4155118;28;20032;-87
2021/06/25 00:22:00;;;;;;;25.73;23.33;;;;;;;9.66;67.95;101906.53;4187137;28;20037;-88
2021/06/25 00:24:00;;;;;;;29.50;26.52;;;;;;;9.74;68.04;101920.91;4168580;28;20024;-88
2021/06/25 00:26:01;;;;;;;28.45;25.67;;;;;;;9.68;68.15;101898.97;4167377;28;20033;-89
2021/06/25 00:28:03;;;;;;;32.70;29.50;;;;;;;9.85;68.40;101944.19;4173574;28;20056;-90
2021/06/25 00:30:05;;;;;;;28.33;25.55;;;;;;;9.63;68.09;101898.72;4189670;28;20024;-91
2021/06/25 00:32:06;;;;;;;34.85;31.70;;;;;;;9.69;67.69;101901.53;4155145;28;20518;-89
2021/06/25 00:34:07;;;;;;;27.25;24.55;;;;;;;9.77;67.98;101911.50;4149353;28;20333;-88
2021/06/25 00:36:07;;;;;;;27.80;25.00;;;;;;;9.87;68.02;101912.06;4156865;28;20487;-89
2021/06/25 00:38:08;;;;;;;30.98;27.98;;;;;;;9.97;68.17;101914.47;4150906;28;20025;-90
2021/06/25 00:40:09;;;;;;;32.78;29.75;;;;;;;9.93;68.06;101904.94;4154523;28;20542;-88
2021/06/25 00:42:10;;;;;;;28.92;25.90;;;;;;;9.92;68.39;101895.91;4183052;28;20056;-89
2021/06/25 00:44:19;;;;;;;28.30;25.50;;;;;;;10.10;67.98;101902.81;4155714;28;20041;-87
2021/06/25 00:46:19;;;;;;;31.67;28.50;;;;;;;9.93;67.94;101867.53;4163012;28;20030;-88
2021/06/25 00:48:20;;;;;;;26.55;23.73;;;;;;;10.16;69.05;101921.22;4163830;28;20544;-88
2021/06/25 00:50:23;;;;;;;27.05;24.35;;;;;;;10.09;68.51;101882.00;4170394;28;20582;-88
2021/06/25 00:52:24;;;;;;;29.70;26.00;;;;;;;10.21;68.29;101868.63;4180437;28;20082;-89
2021/06/25 00:54:24;;;;;;;25.52;22.85;;;;;;;10.37;67.41;101887.53;4166241;28;20068;-88
2021/06/25 00:56:25;;;;;;;27.33;24.60;;;;;;;10.38;67.10;101877.44;4145355;28;20038;-87
2021/06/25 00:58:26;;;;;;;25.63;23.00;;;;;;;10.49;66.87;101885.13;4164067;28;20430;-88
2021/06/25 01:00:26;;;;;;;28.13;25.27;;;;;;;10.35;66.70;101867.75;4134454;28;20062;-88
2021/06/25 01:02:29;;;;;;;30.15;27.38;;;;;;;10.56;66.31;101891.50;4189457;28;20021;-88
2021/06/25 01:04:29;;;;;;;26.40;23.80;;;;;;;10.56;66.15;101879.72;4152228;28;20594;-88
2021/06/25 01:06:30;;;;;;;24.08;21.73;;;;;;;10.63;66.21;101880.66;4179926;28;20510;-87
2021/06/25 01:08:31;;;;;;;26.92;24.25;;;;;;;10.61;66.23;101866.28;4185204;28;20032;-87
2021/06/25 01:10:32;;;;;;;25.85;23.25;;;;;;;10.73;66.53;101885.78;4169278;28;20414;-87
2021/06/25 01:12:34;;;;;;;29.02;26.38;;;;;;;10.80;66.52;101873.84;4153732;28;20038;-87
2021/06/25 01:14:34;;;;;;;27.75;25.05;;;;;;;10.85;66.39;101879.53;4169932;28;20147;-87
2021/06/25 01:16:35;;;;;;;29.63;26.58;;;;;;;10.98;66.09;101895.25;4167167;28;20033;-86
2021/06/25 01:18:36;;;;;;;23.52;21.33;;;;;;;11.02;66.05;101879.25;4175548;28;20707;-88
2021/06/25 01:20:37;;;;;;;22.80;20.67;;;;;;;11.01;66.03;101881.16;4168234;28;20025;-89
2021/06/25 01:22:40;;;;;;;21.25;19.23;;;;;;;10.72;66.22;101846.59;4165385;28;20499;-88
2021/06/25 01:24:40;;;;;;;28.48;25.85;;;;;;;10.90;66.09;101859.78;4168229;28;20029;-87
2021/06/25 01:26:43;;;;;;;24.25;21.90;;;;;;;11.03;65.96;101878.22;4167487;28;20135;-89
2021/06/25 01:28:44;;;;;;;20.60;18.42;;;;;;;10.99;65.81;101850.34;4162091;28;20422;-89
2021/06/25 01:30:47;;;;;;;24.33;22.02;;;;;;;11.17;66.21;101879.16;4162723;28;20551;-88
2021/06/25 01:32:48;;;;;;;22.27;20.08;;;;;;;10.92;66.21;101838.53;4169174;28;20088;-87
2021/06/25 01:34:49;;;;;;;21.55;19.27;;;;;;;11.15;66.34;101862.03;4184570;28;20029;-88
2021/06/25 01:36:50;;;;;;;21.77;19.67;;;;;;;11.21;66.23;101866.72;4182041;28;20873;-88
2021/06/25 01:38:52;;;;;;;24.58;22.17;;;;;;;11.24;65.89;101860.00;4163878;28;20247;-87
2021/06/25 01:40:54;;;;;;;28.60;25.80;;;;;;;11.14;66.11;101839.28;4162071;28;20045;-89
2021/06/25 01:42:55;;;;;;;27.05;24.35;;;;;;;11.13;65.95;101836.75;4166435;28;20091;-87
2021/06/25 01:44:57;;;;;;;23.30;21.00;;;;;;;11.00;66.20;101827.41;4161023;28;20029;-85
2021/06/25 01:47:00;;;;;;;23.23;20.95;;;;;;;11.19;66.52;101869.66;4183693;28;20047;-89
2021/06/25 01:49:01;;;;;;;19.88;17.85;;;;;;;11.22;66.35;101869.25;4181119;28;20059;-89
2021/06/25 01:51:01;;;;;;;22.02;19.67;;;;;;;11.27;66.12;101854.09;4155110;28;20473;-87
2021/06/25 01:53:04;;;;;;;22.92;20.48;;;;;;;11.06;65.87;101822.16;4166345;28;20087;-88
2021/06/25 01:55:07;;;;;;;22.58;20.17;;;;;;;11.15;66.00;101830.03;4180736;28;20047;-87
2021/06/25 01:57:07;;;;;;;21.38;19.15;;;;;;;11.34;65.94;101844.03;4150226;28;20079;-88
2021/06/25 01:59:09;;;;;;;21.58;19.20;;;;;;;11.23;65.49;101831.75;4182047;28;20058;-88
2021/06/25 02:01:16;;;;;;;20.20;18.25;;;;;;;11.24;65.57;101827.09;4182250;28;20114;-88
2021/06/25 02:03:16;;;;;;;20.13;18.08;;;;;;;11.16;65.49;101797.97;4181214;28;20029;-88
2021/06/25 02:05:17;;;;;;;21.63;19.30;;;;;;;11.43;65.34;101842.81;4163392;28;20023;-86
2021/06/25 02:07:17;;;;;;;20.95;18.45;;;;;;;11.21;65.21;101807.28;4183023;28;20037;-89
2021/06/25 02:09:18;;;;;;;17.67;15.77;;;;;;;11.24;65.35;101802.44;4149924;28;20025;-89
2021/06/25 02:11:22;;;;;;;20.75;18.33;;;;;;;11.48;65.12;101833.97;4163112;28;20502;-88
2021/06/25 02:13:22;;;;;;;22.48;20.30;;;;;;;11.57;65.14;101849.19;4168902;28;20062;-89
2021/06/25 02:15:23;;;;;;;23.48;21.15;;;;;;;11.56;65.33;101842.84;4182476;28;20566;-87
2021/06/25 02:17:24;;;;;;;20.70;18.60;;;;;;;11.43;65.32;101815.41;4159239;28;20033;-90
2021/06/25 02:19:25;;;;;;;22.50;20.33;;;;;;;11.46;65.38;101815.00;4184955;28;20517;-88
2021/06/25 02:21:25;;;;;;;22.50;20.00;;;;;;;11.47;65.45;101816.66;4182516;28;20025;-87
2021/06/25 02:23:26;;;;;;;27.10;24.25;;;;;;;11.50;65.84;101821.72;4164695;28;20029;-88
2021/06/25 02:25:27;;;;;;;25.70;22.98;;;;;;;11.38;65.92;101796.81;4150677;28;20044;-89
2021/06/25 02:27:27;;;;;;;21.88;19.67;;;;;;;11.66;65.92;101838.88;4159288;28;20044;-87
2021/06/25 02:29:28;;;;;;;25.60;23.05;;;;;;;11.70;65.57;101837.41;4181876;28;20040;-87
2021/06/25 02:31:28;;;;;;;26.17;23.40;;;;;;;11.49;65.69;101797.25;4165988;28;20118;-89
2021/06/25 02:33:31;;;;;;;29.50;25.45;;;;;;;11.56;65.75;101809.09;4163222;28;20017;-89
2021/06/25 02:35:31;;;;;;;29.42;24.95;;;;;;;11.55;66.14;101837.56;4166089;28;20483;-87
2021/06/25 02:37:40;;;;;;;25.55;22.70;;;;;;;11.39;66.11;101817.69;4148686;28;20033;-90
2021/06/25 02:39:41;;;;;;;31.25;26.50;;;;;;;11.44;66.02;101813.50;4165551;28;20148;-90
2021/06/25 02:41:42;;;;;;;32.10;28.35;;;;;;;11.53;65.89;101824.06;4171519;28;20178;-87
2021/06/25 02:43:44;;;;;;;35.97;31.50;;;;;;;11.35;65.97;101797.25;4162463;28;20116;-86
2021/06/25 02:45:47;;;;;;;29.55;24.30;;;;;;;11.29;65.82;101791.72;4153413;28;20041;-90
2021/06/25 02:47:48;;;;;;;31.40;27.60;;;;;;;11.30;66.12;101783.28;4164942;28;20036;-88
2021/06/25 02:49:48;;;;;;;33.22;27.48;;;;;;;11.45;66.09;101802.31;4163737;28;20025;-91
2021/06/25 02:51:49;;;;;;;34.78;27.60;;;;;;;11.37;66.02;101799.78;4168442;28;20026;-86
2021/06/25 02:53:52;;;;;;;31.55;28.13;;;;;;;11.57;65.97;101816.28;4162216;28;20403;-87
2021/06/25 02:55:57;;;;;;;33.53;26.73;;;;;;;11.34;65.88;101773.59;4169271;28;20021;-87
2021/06/25 02:58:00;;;;;;;34.47;29.88;;;;;;;11.32;66.14;101791.28;4183168;28;20288;-89
2021/06/25 03:00:04;;;;;;;33.28;29.63;;;;;;;11.36;65.97;101793.41;4158084;28;20037;-89
2021/06/25 03:02:05;;;;;;;34.90;30.95;;;;;;;11.29;65.96;101765.16;4180912;28;20064;-88
2021/06/25 03:04:05;;;;;;;35.47;30.45;;;;;;;11.57;65.77;101811.66;4182047;28;20060;-88
2021/06/25 03:06:08;;;;;;;39.35;32.20;;;;;;;11.31;66.17;101774.00;4159980;28;20041;-90
2021/06/25 03:08:18;;;;;;;37.72;29.52;;;;;;;11.51;66.10;101801.50;4168452;28;20040;-91
2021/06/25 03:10:18;;;;;;;35.30;31.30;;;;;;;11.30;66.14;101766.00;4174895;28;20088;-91
2021/06/25 03:12:19;;;;;;;38.97;32.95;;;;;;;11.42;66.28;101785.44;4158678;28;20743;-89
2021/06/25 03:14:39;;;;;;;;;;;;;;;;;;;;;
2021/06/25 03:16:42;;;;;;;40.10;33.93;;;;;;;11.28;66.64;101760.72;4186382;28;20037;-90
2021/06/25 03:18:42;;;;;;;37.88;32.75;;;;;;;11.33;66.85;101779.28;4171553;28;20459;-90
2021/06/25 03:20:45;;;;;;;36.28;30.88;;;;;;;11.53;66.27;101798.56;4168809;28;20065;-88
2021/06/25 03:22:48;;;;;;;35.83;32.00;;;;;;;11.65;66.16;101804.28;4170297;28;20037;-90
2021/06/25 03:25:07;;;;;;;36.90;31.88;;;;;;;11.49;66.36;101794.53;4170998;28;20036;-88
2021/06/25 03:27:11;;;;;;;40.03;33.28;;;;;;;11.30;66.31;101763.25;4184196;28;20024;-89
2021/06/25 03:29:11;;;;;;;37.85;31.92;;;;;;;11.42;66.44;101769.00;4170284;28;20021;-88
2021/06/25 03:31:22;;;;;;;;;;;;;;;;;;;;;
2021/06/25 03:33:26;;;;;;;41.60;35.33;;;;;;;11.32;66.49;101751.06;4183240;28;20502;-92
2021/06/25 03:35:29;;;;;;;40.08;32.75;;;;;;;11.51;66.43;101778.72;4173857;28;20040;-89
2021/06/25 03:37:30;;;;;;;41.03;32.80;;;;;;;11.65;66.15;101791.41;4190621;28;20035;-89
2021/06/25 03:39:41;;;;;;;34.28;29.45;;;;;;;11.64;66.08;101786.13;4192247;28;20190;-90
2021/06/25 03:41:42;;;;;;;33.95;29.83;;;;;;;11.47;66.06;101767.31;4186297;28;20417;-89
2021/06/25 03:43:45;;;;;;;36.30;29.02;;;;;;;11.60;66.53;101774.75;4173936;28;20033;-88
2021/06/25 03:45:45;;;;;;;39.78;30.70;;;;;;;11.56;66.22;101763.34;4187861;28;20041;-89
2021/06/25 03:47:49;;;;;;;35.03;28.55;;;;;;;11.52;66.36;101755.72;4166948;28;20032;-89
2021/06/25 03:49:51;;;;;;;40.05;32.33;;;;;;;11.74;66.53;101790.19;4174644;28;20102;-91
2021/06/25 03:51:52;;;;;;;39.17;30.25;;;;;;;11.58;66.49;101758.50;4172136;28;20033;-87
2021/06/25 03:53:52;;;;;;;41.47;32.75;;;;;;;11.60;66.78;101769.28;4169648;28;20391;-89
2021/06/25 03:56:11;;;;;;;38.92;31.95;;;;;;;11.73;66.54;101772.03;4189114;28;20036;-89
2021/06/25 03:58:21;;;;;;;39.63;31.35;;;;;;;11.69;66.20;101762.53;4187794;28;20056;-91
2021/06/25 04:00:21;;;;;;;40.90;33.72;;;;;;;11.75;66.48;101778.16;4174332;28;20025;-90
2021/06/25 04:02:24;;;;;;;38.55;30.58;;;;;;;11.60;66.18;101744.59;4166976;28;20161;-90
2021/06/25 04:04:25;;;;;;;37.63;31.88;;;;;;;11.57;66.09;101728.56;4184280;28;20036;-87
2021/06/25 04:06:25;;;;;;;40.47;31.90;;;;;;;11.61;66.20;101740.78;4165279;28;20055;-88
2021/06/25 04:08:28;;;;;;;37.45;32.85;;;;;;;11.53;66.39;101738.22;4167775;28;20025;-88
2021/06/25 04:10:31;;;;;;;45.17;36.88;;;;;;;11.78;66.46;101774.16;4170108;28;20112;-91
2021/06/25 04:12:34;;;;;;;40.60;32.75;;;;;;;11.59;67.11;101742.88;4166009;28;20056;-88
2021/06/25 04:14:37;;;;;;;43.97;36.97;;;;;;;11.64;67.06;101765.03;4165207;28;20038;-93
2021/06/25 04:16:38;;;;;;;38.15;30.90;;;;;;;11.76;66.92;101782.56;4171245;28;20033;-89
2021/06/25 04:18:39;;;;;;;42.65;33.10;;;;;;;11.60;67.16;101751.94;4172404;28;20112;-89
2021/06/25 04:20:48;;;;;;;40.60;33.65;;;;;;;11.69;67.04;101746.09;4169708;28;20035;-92
2021/06/25 04:22:49;;;;;;;41.97;34.00;;;;;;;11.70;67.05;101747.75;4166620;28;20025;-88
2021/06/25 04:24:52;;;;;;;42.38;36.25;;;;;;;11.70;67.07;101750.50;4173183;28;20152;-91
2021/06/25 04:26:53;;;;;;;37.38;32.28;;;;;;;11.69;67.33;101746.09;4142168;28;20056;-88
2021/06/25 04:28:56;;;;;;;34.53;29.20;;;;;;;11.70;67.04;101728.56;4172262;28;20037;-90
2021/06/25 04:30:57;;;;;;;34.72;28.38;;;;;;;11.95;66.89;101763.66;4153021;28;20617;-89
2021/06/25 04:33:00;;;;;;;40.92;34.83;;;;;;;11.76;66.62;101726.88;4168456;28;20120;-88
2021/06/25 04:35:00;;;;;;;38.97;31.70;;;;;;;12.04;66.34;101769.78;4165748;28;20021;-90
2021/06/25 04:37:12;;;;;;;41.20;34.70;;;;;;;11.88;66.13;101730.72;4168156;28;20045;-89
2021/06/25 04:39:13;;;;;;;40.53;36.25;;;;;;;11.95;65.78;101758.16;4174955;28;20041;-89
2021/06/25 04:41:18;;;;;;;35.20;30.50;;;;;;;12.13;66.11;101764.91;4172579;28;20025;-89
2021/06/25 04:43:19;;;;;;;37.78;31.13;;;;;;;11.98;66.27;101734.94;4186431;28;20028;-89
2021/06/25 04:45:28;;;;;;;37.42;32.05;;;;;;;12.22;65.82;101758.16;4184021;28;20587;-89
2021/06/25 04:47:31;;;;;;;37.03;32.33;;;;;;;12.16;65.84;101742.53;4153798;28;20076;-87
2021/06/25 04:49:35;;;;;;;36.42;32.50;;;;;;;12.04;65.75;101715.75;4179475;28;20047;-88
2021/06/25 04:51:44;;;;;;;39.97;32.10;;;;;;;12.15;65.98;101727.16;4180391;28;20036;-87
2021/06/25 04:53:58;;;;;;;;;;;;;;;;;;;;;
2021/06/25 04:55:58;;;;;;;39.58;34.83;;;;;;;12.16;65.86;101704.97;4185193;28;20034;-87
2021/06/25 04:58:06;;;;;;;41.33;34.97;;;;;;;12.21;65.72;101710.66;4167880;28;20205;-90
2021/06/25 05:00:11;;;;;;;38.15;32.33;;;;;;;12.15;65.70;101691.47;4163689;28;20040;-88
2021/06/25 05:02:13;;;;;;;31.95;28.00;;;;;;;12.46;65.57;101740.19;4186407;28;20444;-90
2021/06/25 05:04:19;;;;;;;37.22;33.22;;;;;;;12.24;65.65;101691.03;4153212;28;20037;-89
2021/06/25 05:06:20;;;;;;;35.70;30.75;;;;;;;12.33;65.80;101710.88;4167362;28;20376;-88
2021/06/25 05:08:20;;;;;;;35.45;30.88;;;;;;;12.32;66.17;101706.44;4167135;28;20128;-87
2021/06/25 05:10:26;;;;;;;38.08;33.97;;;;;;;12.43;66.25;101726.91;4152829;28;20439;-89
2021/06/25 05:12:30;;;;;;;38.33;33.55;;;;;;;12.35;66.19;101691.44;4167896;28;20391;-88
2021/06/25 05:14:30;;;;;;;36.45;32.63;;;;;;;12.30;66.05;101694.81;4169584;28;20088;-90
2021/06/25 05:16:34;;;;;;;37.58;31.77;;;;;;;12.54;65.94;101726.22;4163376;28;20041;-88
2021/06/25 05:18:39;;;;;;;34.03;30.33;;;;;;;12.68;66.54;101727.03;4154882;28;20679;-91
2021/06/25 05:20:48;;;;;;;34.13;28.38;;;;;;;12.65;66.08;101708.25;4172298;28;20030;-92
2021/06/25 05:22:55;;;;;;;32.65;28.83;;;;;;;12.83;65.96;101730.38;4162759;28;20125;-88
2021/06/25 05:24:56;;;;;;;30.02;26.42;;;;;;;13.05;65.53;101723.78;4154781;28;20029;-89
2021/06/25 05:27:10;;;;;;;30.60;25.98;;;;;;;13.07;65.25;101696.91;4167331;28;20517;-87
2021/06/25 05:29:16;;;;;;;30.73;27.17;;;;;;;13.33;65.18;101699.56;4183408;28;20033;-91
2021/06/25 05:31:29;;;;;;;28.45;24.77;;;;;;;13.38;64.45;101685.13;4184400;28;20033;-91
2021/06/25 05:33:39;;;;;;;36.28;26.88;;;;;;;13.52;63.76;101675.72;4165446;28;20079;-93
2021/06/25 05:35:39;;;;;;;31.98;28.45;;;;;;;13.85;63.03;101676.53;4169392;28;20033;-89
2021/06/25 05:37:40;;;;;;;29.25;25.65;;;;;;;14.33;62.17;101675.06;4154662;28;20070;-90
2021/06/25 05:39:53;;;;;;;28.25;25.20;;;;;;;16.70;57.49;101676.66;4179543;28;20057;-92
2021/06/25 05:42:11;;;;;;;29.80;26.70;;;;;;;19.27;50.52;101689.13;4125097;28;20065;-90
2021/06/25 05:44:17;;;;;;;32.03;23.98;;;;;;;21.41;45.26;101697.47;4149606;28;20029;-92
2021/06/25 05:46:43;;;;;;;25.48;22.45;;;;;;;22.41;41.74;101679.34;4171400;28;20029;-92
2021/06/25 05:48:54;;;;;;;24.77;20.20;;;;;;;22.41;40.61;101702.50;4171498;28;20481;-89
2021/06/25 05:50:57;;;;;;;22.42;20.05;;;;;;;22.11;41.70;101714.56;4168062;28;20043;-90
2021/06/25 05:53:03;;;;;;;23.20;20.63;;;;;;;21.13;42.39;101702.41;4187840;28;20096;-89
2021/06/25 05:55:09;;;;;;;21.67;18.00;;;;;;;20.34;44.91;101690.31;4145993;28;20061;-91
2021/06/25 05:57:10;;;;;;;21.70;18.17;;;;;;;19.64;46.39;101687.53;4167865;28;20037;-90
2021/06/25 05:59:11;;;;;;;20.17;17.42;;;;;;;19.16;48.31;101704.81;4155376;28;20201;-87
2021/06/25 06:01:29;;;;;;;24.15;19.13;;;;;;;18.68;48.84;101706.41;4172786;28;20033;-88
2021/06/25 06:03:52;;;;;;;22.80;19.05;;;;;;;18.33;49.80;101682.63;4159441;28;20033;-93
2021/06/25 06:06:05;;;;;;;21.02;18.63;;;;;;;17.92;50.29;101704.13;4147924;28;20128;-90
2021/06/25 06:08:06;;;;;;;22.40;18.38;;;;;;;17.68;51.75;101718.13;4166060;28;20194;-88
2021/06/25 06:10:09;;;;;;;21.83;17.13;;;;;;;17.34;52.54;101706.13;4182636;28;20056;-90
2021/06/25 06:12:12;;;;;;;17.80;16.00;;;;;;;16.91;53.72;101698.13;4152847;28;20629;-89
2021/06/25 06:14:13;;;;;;;21.48;17.15;;;;;;;16.82;54.50;101720.84;4162231;28;20127;-89
2021/06/25 06:16:21;;;;;;;20.38;18.23;;;;;;;16.66;54.33;101698.41;4188196;28;20076;-94
2021/06/25 06:18:27;;;;;;;21.10;17.52;;;;;;;16.61;54.86;101701.03;4148777;28;20034;-90
2021/06/25 06:20:41;;;;;;;;;;;;;;;;;;;;;
2021/06/25 06:32:30;;;;;;;20.67;18.45;;;;;;;16.15;56.76;101691.69;4180589;28;20559;-90
2021/06/25 06:34:35;;;;;;;24.13;19.98;;;;;;;16.52;56.86;101719.06;4181484;28;20509;-90
2021/06/25 06:36:54;;;;;;;23.15;20.67;;;;;;;16.85;56.46;101693.56;4172516;28;20028;-90
2021/06/25 06:39:00;;;;;;;24.27;20.50;;;;;;;17.35;55.48;101697.59;4164653;28;20540;-89
2021/06/25 06:41:00;;;;;;;28.73;19.20;;;;;;;17.45;55.32;101689.44;4165661;28;20407;-86
2021/06/25 06:43:02;;;;;;;22.80;18.95;;;;;;;17.59;54.65;101700.25;4170600;28;20029;-89
2021/06/25 06:45:08;;;;;;;22.15;19.40;;;;;;;17.58;54.83;101698.56;4164312;28;20706;-88
2021/06/25 06:47:10;;;;;;;23.55;19.85;;;;;;;17.72;54.45;101696.31;4172812;28;20053;-86
2021/06/25 06:49:20;;;;;;;25.27;19.73;;;;;;;17.81;54.20;101692.03;4169249;28;20415;-89
2021/06/25 06:51:24;;;;;;;25.63;19.73;;;;;;;17.96;54.25;101699.78;4168261;28;20033;-88
2021/06/25 06:53:27;;;;;;;21.08;18.45;;;;;;;17.85;54.50;101684.09;4163411;28;20252;-93
2021/06/25 06:55:30;;;;;;;23.00;17.55;;;;;;;17.89;54.26;101683.34;4167076;28;20060;-92
2021/06/25 06:57:33;;;;;;;26.38;18.73;;;;;;;18.04;54.45;101717.91;4167877;28;20326;-92
2021/06/25 06:59:34;;;;;;;27.38;20.13;;;;;;;17.94;54.51;101708.34;4170344;28;20033;-88
2021/06/25 07:01:35;;;;;;;22.95;17.58;;;;;;;17.82;54.71;101668.81;4170911;28;20652;-91
2021/06/25 07:03:35;;;;;;;26.00;16.73;;;;;;;17.95;54.66;101693.41;4149966;28;20096;-88
2021/06/25 07:05:36;;;;;;;20.13;17.13;;;;;;;18.02;54.54;101687.69;4167801;28;20082;-91
2021/06/25 07:07:40;;;;;;;24.33;17.73;;;;;;;18.22;54.05;101697.41;4168336;28;20064;-90
2021/06/25 07:09:40;;;;;;;25.88;17.08;;;;;;;18.40;53.99;101705.47;4162659;28;20040;-88
2021/06/25 07:11:40;;;;;;;23.23;17.48;;;;;;;18.43;53.81;101702.19;4164850;28;20041;-86
2021/06/25 07:13:46;;;;;;;23.92;16.70;;;;;;;18.59;54.06;101708.78;4157453;28;20384;-89
2021/06/25 07:15:50;;;;;;;25.65;16.80;;;;;;;18.76;53.43;101697.66;4170473;28;20445;-92
2021/06/25 07:17:53;;;;;;;22.65;15.63;;;;;;;18.73;53.14;101683.47;4162473;28;20079;-91
2021/06/25 07:19:56;;;;;;;23.52;16.10;;;;;;;18.96;53.31;101693.47;4172950;28;20029;-91
2021/06/25 07:21:57;;;;;;;23.33;15.77;;;;;;;18.95;53.46;101692.59;4175139;28;20114;-90
2021/06/25 07:24:14;;;;;;;20.77;15.35;;;;;;;18.85;53.55;101676.69;4163649;28;20025;-92
2021/06/25 07:28:47;;;;;;;24.73;17.83;;;;;;;18.89;53.40;101718.59;4159276;28;20437;-92
2021/06/25 07:30:48;;;;;;;20.05;15.77;;;;;;;18.67;54.08;101686.16;4162097;28;20554;-85
2021/06/25 07:32:49;;;;;;;26.63;18.63;;;;;;;18.59;53.86;101680.22;4150999;28;20121;-88
2021/06/25 07:34:57;;;;;;;19.92;17.15;;;;;;;18.65;54.25;101690.28;4158075;28;20417;-89
2021/06/25 07:36:57;;;;;;;23.17;16.88;;;;;;;18.59;54.48;101681.06;4168934;28;20029;-90
2021/06/25 07:38:58;;;;;;;25.38;18.17;;;;;;;18.53;54.92;101702.31;4174236;28;20044;-88
2021/06/25 07:40:58;;;;;;;27.92;16.58;;;;;;;18.43;55.59;101701.34;4170149;28;20034;-89
2021/06/25 07:42:59;;;;;;;23.67;16.50;;;;;;;18.32;55.65;101678.19;4155921;28;20056;-89
2021/06/25 07:45:08;;;;;;;23.48;16.65;;;;;;;18.41;55.47;101723.78;4161203;28;20027;-91
2021/06/25 07:47:09;;;;;;;26.10;18.02;;;;;;;18.40;56.02;101713.78;4181691;28;20158;-86
2021/06/25 07:49:09;;;;;;;23.73;17.52;;;;;;;18.17;56.22;101689.88;4153763;28;20837;-92
2021/06/25 07:51:28;;;;;;;22.52;16.10;;;;;;;18.24;56.81;101689.69;4171388;28;20044;-95
2021/06/25 07:53:28;;;;;;;28.38;18.38;;;;;;;;;;4155823;28;20030;-89
2021/06/25 07:55:43;;;;;;;26.05;18.27;;;;;;;18.53;56.88;101702.31;4149589;28;20068;-89
2021/06/25 07:57:44;;;;;;;28.67;19.73;;;;;;;18.41;56.82;101679.41;4170660;28;20051;-91
2021/06/25 07:59:46;;;;;;;28.85;20.75;;;;;;;18.58;56.67;101712.66;4174169;28;20030;-91
2021/06/25 08:01:47;;;;;;;23.55;17.65;;;;;;;18.55;56.33;101687.38;4170031;28;20413;-88
2021/06/25 08:03:58;;;;;;;27.23;18.60;;;;;;;18.70;56.61;101701.44;4152339;28;20079;-94
2021/06/25 08:05:59;;;;;;;27.42;18.38;;;;;;;18.69;56.04;101689.53;4171766;28;20029;-88
2021/06/25 08:07:59;;;;;;;25.63;17.45;;;;;;;18.84;56.17;101707.44;4169517;28;20035;-87
2021/06/25 08:10:06;;;;;;;27.02;17.70;;;;;;;18.90;55.54;101692.56;4191500;28;20036;-93
2021/06/25 08:12:08;;;;;;;23.30;16.15;;;;;;;18.94;55.51;101701.19;4167829;28;20036;-90
2021/06/25 08:14:09;;;;;;;25.15;17.35;;;;;;;18.71;55.31;101678.19;4169943;28;20083;-89
2021/06/25 08:16:10;;;;;;;20.70;16.98;;;;;;;18.69;55.43;101675.66;4168019;28;20040;-92
2021/06/25 08:18:12;;;;;;;24.80;16.10;;;;;;;18.50;56.01;101672.34;4152700;28;20029;-92
2021/06/25 08:20:13;;;;;;;25.05;16.73;;;;;;;18.50;55.92;101688.16;4157211;28;20033;-90
2021/06/25 08:22:17;;;;;;;22.23;15.95;;;;;;;18.44;56.34;101691.94;4171721;28;20040;-92
2021/06/25 08:24:17;;;;;;;21.38;15.10;;;;;;;18.58;56.73;101706.28;4158502;28;20041;-90
2021/06/25 08:26:18;;;;;;;23.15;15.10;;;;;;;18.44;56.73;101695.53;4170738;28;20033;-93
2021/06/25 08:28:24;;;;;;;22.08;14.68;;;;;;;18.51;56.71;101706.47;4155632;28;20060;-92
2021/06/25 08:30:26;;;;;;;21.40;14.95;;;;;;;18.37;56.75;101689.38;4168193;28;20098;-88
2021/06/25 08:32:26;;;;;;;25.77;17.42;;;;;;;;;;4173607;28;20044;-86
2021/06/25 08:34:27;;;;;;;25.55;16.73;;;;;;;18.43;57.28;101690.25;4168225;28;20480;-87
2021/06/25 08:36:28;;;;;;;26.52;15.13;;;;;;;18.49;56.88;101676.22;4156847;28;20049;-88
2021/06/25 08:38:28;;;;;;;22.80;16.48;;;;;;;18.48;56.69;101682.84;4156693;28;20502;-84
2021/06/25 08:40:32;;;;;;;21.02;14.68;;;;;;;18.71;56.34;101692.88;4170481;28;20057;-92
2021/06/25 08:42:40;;;;;;;23.02;15.27;;;;;;;18.80;55.86;101686.88;4156228;28;20109;-92
2021/06/25 08:44:41;;;;;;;24.45;14.30;;;;;;;18.83;55.62;101669.69;4169729;28;20033;-85
2021/06/25 08:46:46;;;;;;;20.38;13.48;;;;;;;19.12;55.82;101688.94;4170942;28;20032;-90
2021/06/25 08:48:48;;;;;;;21.27;13.55;;;;;;;18.98;55.62;101669.88;4169024;28;20087;-88
2021/06/25 08:50:54;;;;;;;19.05;15.02;;;;;;;19.11;55.73;101677.03;4170708;28;20438;-90
2021/06/25 08:52:55;;;;;;;21.75;14.43;;;;;;;19.19;54.97;101701.53;4168452;28;20704;-92
2021/06/25 08:54:55;;;;;;;23.13;15.65;;;;;;;19.14;55.10;101679.28;4134857;28;20034;-87
2021/06/25 08:56:57;;;;;;;21.17;15.63;;;;;;;19.25;55.03;101688.56;4191421;28;20037;-90
2021/06/25 08:59:00;;;;;;;22.20;15.95;;;;;;;19.30;55.19;101696.94;4156170;28;20380;-91
2021/06/25 09:01:01;;;;;;;22.25;15.32;;;;;;;19.38;55.06;101681.72;4158866;28;20480;-89
2021/06/25 09:03:02;;;;;;;21.50;15.70;;;;;;;19.53;55.10;101686.63;4174166;28;20033;-88
2021/06/25 09:05:04;;;;;;;23.02;15.35;;;;;;;19.64;54.40;101693.94;4174082;28;20139;-89
2021/06/25 09:07:07;;;;;;;20.30;14.07;;;;;;;19.77;54.99;101692.66;4177621;28;20028;-93
2021/06/25 09:09:11;;;;;;;20.30;14.00;;;;;;;19.68;53.86;101683.97;4177521;28;20021;-89
2021/06/25 09:11:32;;;;;;;19.58;14.52;;;;;;;20.05;53.58;101688.75;4170613;28;20511;-89
2021/06/25 09:13:39;;;;;;;20.23;11.85;;;;;;;20.12;52.95;101655.97;4155965;28;20030;-89
2021/06/25 09:15:42;;;;;;;17.30;13.13;;;;;;;20.29;52.49;101669.72;4172974;28;20066;-91
2021/06/25 09:17:57;;;;;;;21.55;14.18;;;;;;;20.38;53.21;101669.22;4174914;28;20041;-87
2021/06/25 09:19:58;;;;;;;17.88;13.07;;;;;;;20.27;53.30;101671.94;4177096;28;20120;-89
2021/06/25 09:22:05;;;;;;;17.33;12.90;;;;;;;20.18;53.60;101664.38;4164276;28;20074;-91
2021/06/25 09:24:25;;;;;;;19.33;13.55;;;;;;;20.10;53.06;101674.06;4175270;28;20025;-91
2021/06/25 09:26:35;;;;;;;18.38;12.73;;;;;;;19.89;53.65;101660.00;4168300;28;20029;-89
2021/06/25 09:28:38;;;;;;;17.60;12.80;;;;;;;19.98;53.56;101673.41;4144944;28;20515;-89
2021/06/25 09:30:43;;;;;;;15.40;12.43;;;;;;;19.95;53.38;101660.88;4170984;28;20060;-87
2021/06/25 09:32:44;;;;;;;18.05;13.40;;;;;;;19.92;53.58;101644.75;4175097;28;20032;-87
2021/06/25 09:34:50;;;;;;;19.42;13.65;;;;;;;19.91;53.90;101652.25;4173941;28;20041;-89
2021/06/25 09:37:00;;;;;;;17.42;13.45;;;;;;;19.87;53.64;101650.28;4167614;28;20145;-88
2021/06/25 09:39:08;;;;;;;20.45;14.52;;;;;;;19.93;54.26;101666.69;4174301;28;20037;-88
2021/06/25 09:41:19;;;;;;;22.75;14.05;;;;;;;19.75;54.26;101655.97;4171147;28;20033;-91